Terminal Aerodrome Forecast
Issued by NWS

Home | Current Version | Previous Version | Text Only | Print | Product List | Glossary On
Versions: 1 2 3 4 5 6 7 8 9 10 11 12 13 14
000
FTUS42 KTBW 070543
TAFPIE
TAF
KPIE 070543Z 0706/0806 04007KT P6SM SCT040 SCT250
     FM071700 32009KT P6SM FEW050 FEW250
     FM080300 34005KT P6SM SKC=

USA.gov is the U.S. government's official web portal to all federal, state and local government web resources and services.